Time;durP1;ratioP1;P1;durP2;ratioP2;P2;SDS_P1;SDS_P2;PMS_P1;PMS_P2;Temp;Humidity;BMP_temperature;BMP_pressure;BME280_temperature;BME280_humidity;BME280_pressure;Samples;Min_cycle;Max_cycle;Signal;HPM_P1;HPM_P2
2022/09/11 00:00:32;;;;;;;3.37;2.77;;;;;;;15.53;nan;100498.44;4969366;28;20109;-67
2022/09/11 00:02:58;;;;;;;3.40;2.47;;;;;;;15.51;nan;100494.09;4969545;28;20301;-67
2022/09/11 00:05:25;;;;;;;5.83;3.03;;;;;;;15.55;nan;100496.41;4968656;28;20037;-67
2022/09/11 00:07:51;;;;;;;4.43;2.88;;;;;;;15.56;nan;100495.41;4953905;28;20751;-67
2022/09/11 00:10:17;;;;;;;3.72;2.80;;;;;;;15.56;nan;100495.41;4970513;28;20038;-67
2022/09/11 00:12:43;;;;;;;4.82;3.00;;;;;;;15.57;nan;100499.75;4971372;28;20039;-67
2022/09/11 00:15:09;;;;;;;4.60;2.80;;;;;;;15.56;nan;100496.22;4971408;28;20031;-67
2022/09/11 00:17:34;;;;;;;3.53;2.60;;;;;;;15.55;nan;100501.75;4976141;28;20089;-67
2022/09/11 00:20:00;;;;;;;3.05;2.42;;;;;;;15.55;nan;100499.91;4970592;28;20031;-67
2022/09/11 00:22:26;;;;;;;3.63;2.35;;;;;;;15.57;nan;100495.22;4974197;28;20035;-67
2022/09/11 00:24:53;;;;;;;4.53;2.50;;;;;;;15.59;nan;100498.53;4968877;28;20142;-67
2022/09/11 00:27:20;;;;;;;4.03;2.40;;;;;;;15.59;nan;100495.03;4954288;28;20519;-67
2022/09/11 00:29:49;;;;;;;3.97;2.80;;;;;;;15.56;nan;100490.88;4969966;28;20058;-67
2022/09/11 00:32:14;;;;;;;3.40;2.50;;;;;;;15.55;nan;100501.75;4970558;28;20403;-67
2022/09/11 00:34:40;;;;;;;4.47;2.70;;;;;;;15.56;nan;100500.72;4970526;28;20037;-67
2022/09/11 00:37:05;;;;;;;2.72;2.30;;;;;;;15.57;nan;100497.88;4971881;28;20039;-67
2022/09/11 00:39:31;;;;;;;3.35;2.10;;;;;;;15.59;nan;100501.19;4970709;28;20548;-67
2022/09/11 00:41:57;;;;;;;3.75;2.30;;;;;;;15.59;nan;100501.19;4970699;28;20030;-67
2022/09/11 00:44:22;;;;;;;3.90;2.90;;;;;;;15.57;nan;100499.75;4970233;28;20085;-67
2022/09/11 00:46:53;;;;;;;3.17;2.53;;;;;;;15.60;nan;100500.19;4970685;28;20416;-67
2022/09/11 00:49:36;;;;;;;3.60;2.37;;;;;;;15.62;nan;100500.00;4970338;28;20297;-67
2022/09/11 00:52:26;;;;;;;3.20;2.60;;;;;;;15.61;nan;100501.00;4965938;28;20494;-67
2022/09/11 00:55:06;;;;;;;2.90;2.50;;;;;;;15.64;nan;100503.31;4969983;28;20034;-67
2022/09/11 00:57:39;;;;;;;5.57;3.35;;;;;;;15.63;nan;100497.13;4958866;28;20118;-67
2022/09/11 01:00:07;;;;;;;4.18;3.00;;;;;;;15.63;nan;100498.97;4966770;28;20086;-67
2022/09/11 01:02:35;;;;;;;3.78;2.92;;;;;;;15.63;nan;100497.13;4968448;28;20122;-67
2022/09/11 01:05:02;;;;;;;4.50;3.90;;;;;;;15.63;nan;100502.47;4968625;28;20035;-67
2022/09/11 01:07:29;;;;;;;4.22;3.22;;;;;;;15.63;nan;100513.13;4967366;28;20052;-67
2022/09/11 01:09:55;;;;;;;4.47;3.10;;;;;;;15.64;nan;100508.66;4970392;28;20038;-66
2022/09/11 01:12:52;;;;;;;5.03;4.13;;;;;;;15.65;nan;100510.28;4967883;28;20134;-67
2022/09/11 01:15:29;;;;;;;6.25;3.75;;;;;;;15.67;nan;100503.75;4973202;28;20423;-67
2022/09/11 01:18:21;;;;;;;4.40;3.10;;;;;;;15.67;nan;100510.94;4968004;28;20492;-67
2022/09/11 01:21:18;;;;;;;4.32;3.33;;;;;;;15.68;nan;100510.75;4969582;28;20491;-67
2022/09/11 01:23:53;;;;;;;3.70;2.55;;;;;;;15.69;nan;100514.25;4968928;28;20053;-67
2022/09/11 01:26:21;;;;;;;4.00;2.70;;;;;;;15.69;nan;100515.06;4976747;28;20106;-67
2022/09/11 01:28:58;;;;;;;3.35;2.70;;;;;;;15.72;nan;100524.56;4968696;28;20031;-67
2022/09/11 01:31:27;;;;;;;5.45;3.50;;;;;;;15.72;nan;100516.56;4962901;28;20027;-67
2022/09/11 01:34:07;;;;;;;3.20;2.80;;;;;;;15.74;nan;100524.38;4967941;28;20035;-67
2022/09/11 01:36:40;;;;;;;3.17;2.88;;;;;;;15.75;nan;100523.34;4968389;28;20572;-67
2022/09/11 01:39:06;;;;;;;4.10;3.00;;;;;;;15.74;nan;100522.53;4968344;28;20586;-67
2022/09/11 01:41:41;;;;;;;3.45;2.70;;;;;;;15.73;nan;100523.56;4968847;28;20214;-67
2022/09/11 01:44:16;;;;;;;3.10;2.67;;;;;;;15.73;nan;100525.38;4968113;28;20133;-68
2022/09/11 01:46:45;;;;;;;4.03;2.65;;;;;;;15.73;nan;100520.03;4969428;28;20527;-67
2022/09/11 01:49:26;;;;;;;5.05;2.70;;;;;;;15.73;nan;100526.22;4968364;28;20034;-67
2022/09/11 01:51:56;;;;;;;3.53;2.60;;;;;;;15.73;nan;100520.91;4968497;28;20039;-67
2022/09/11 01:54:25;;;;;;;3.20;2.40;;;;;;;15.75;nan;100531.34;4967266;28;20038;-67
2022/09/11 01:57:01;;;;;;;4.22;2.60;;;;;;;15.75;nan;100529.50;4967535;28;20061;-67
2022/09/11 01:59:34;;;;;;;3.90;3.03;;;;;;;15.76;nan;100530.34;4966220;28;20181;-67
2022/09/11 02:02:05;;;;;;;4.55;3.13;;;;;;;15.74;nan;100527.88;4966722;28;20109;-67
2022/09/11 02:04:53;;;;;;;;;;;;;;;15.72;nan;100535.22;4968125;28;20051;-67
2022/09/11 02:07:23;;;;;;;3.63;3.00;;;;;;;15.73;nan;100536.03;4962063;28;19914;-67
2022/09/11 02:09:57;;;;;;;4.20;2.90;;;;;;;15.74;nan;100533.19;4968556;28;20037;-67
2022/09/11 02:12:27;;;;;;;4.68;2.70;;;;;;;15.76;nan;100535.69;4968197;28;20027;-67
2022/09/11 02:14:53;;;;;;;4.10;2.60;;;;;;;15.74;nan;100532.38;4968509;28;20038;-67
2022/09/11 02:17:35;;;;;;;3.47;2.80;;;;;;;15.74;nan;100535.88;4968400;28;20049;-67
2022/09/11 02:20:01;;;;;;;3.00;2.30;;;;;;;15.74;nan;100533.19;4967123;28;20039;-67
2022/09/11 02:22:26;;;;;;;2.28;2.08;;;;;;;15.76;nan;100535.69;4968299;28;20038;-67
2022/09/11 02:24:52;;;;;;;2.70;2.40;;;;;;;15.73;nan;100539.56;4973537;28;20045;-67
2022/09/11 02:27:22;;;;;;;2.90;2.10;;;;;;;15.74;nan;100538.53;4968651;28;20031;-66
2022/09/11 02:29:48;;;;;;;2.23;1.87;;;;;;;15.73;nan;100539.56;4968978;28;20043;-66
2022/09/11 02:32:14;;;;;;;2.20;1.90;;;;;;;15.74;nan;100537.72;4967619;28;20035;-66
2022/09/11 02:34:41;;;;;;;2.33;1.90;;;;;;;15.73;nan;100536.88;4970244;28;20126;-66
2022/09/11 02:37:30;;;;;;;2.30;1.88;;;;;;;15.71;nan;100533.59;4966930;28;20047;-66
2022/09/11 02:40:24;;;;;;;2.72;1.90;;;;;;;15.70;nan;100537.25;4967459;28;20451;-66
2022/09/11 02:42:53;;;;;;;2.10;1.83;;;;;;;15.69;nan;100543.56;4960389;28;20040;-66
2022/09/11 02:45:18;;;;;;;1.75;1.52;;;;;;;15.70;nan;100548.72;4969452;28;20051;-66
2022/09/11 02:47:58;;;;;;;2.37;2.10;;;;;;;15.69;nan;100548.91;4968354;28;20049;-66
2022/09/11 02:50:39;;;;;;;3.08;2.33;;;;;;;15.71;nan;100546.91;4970458;28;20059;-66
2022/09/11 02:53:07;;;;;;;2.67;2.10;;;;;;;15.71;nan;100552.25;4971086;28;20038;-66
2022/09/11 02:55:59;;;;;;;2.25;2.00;;;;;;;15.71;nan;100560.25;4972079;28;20314;-66
2022/09/11 02:58:29;;;;;;;3.13;2.13;;;;;;;15.74;nan;100564.38;4965223;28;20114;-66
2022/09/11 03:00:59;;;;;;;2.90;2.58;;;;;;;15.77;nan;100561.31;4969496;28;20042;-66
2022/09/11 03:03:25;;;;;;;2.60;2.35;;;;;;;15.76;nan;100560.50;4972089;28;20039;-66
2022/09/11 03:05:51;;;;;;;2.30;1.70;;;;;;;15.79;nan;100570.78;4970346;28;20034;-66
2022/09/11 03:08:17;;;;;;;2.47;1.70;;;;;;;15.81;nan;100567.97;4971407;28;20396;-66
2022/09/11 03:10:48;;;;;;;2.50;2.00;;;;;;;15.83;nan;100574.75;4967228;28;20408;-66
2022/09/11 03:13:15;;;;;;;2.72;1.98;;;;;;;15.85;nan;100575.41;4971848;28;20034;-66
2022/09/11 03:15:43;;;;;;;2.80;2.00;;;;;;;15.86;nan;100574.38;4970439;28;20047;-66
2022/09/11 03:18:10;;;;;;;2.58;1.88;;;;;;;15.88;nan;100577.69;4971406;28;20050;-66
2022/09/11 03:20:35;;;;;;;2.17;1.83;;;;;;;15.90;nan;100577.50;4970051;28;20034;-66
2022/09/11 03:23:00;;;;;;;2.10;1.73;;;;;;;15.92;nan;100578.97;4972078;28;20042;-66
2022/09/11 03:25:27;;;;;;;4.35;1.90;;;;;;;15.91;nan;100571.97;4953637;28;20372;-66
2022/09/11 03:27:53;;;;;;;3.30;2.42;;;;;;;15.90;nan;100570.34;4971733;28;20378;-66
2022/09/11 03:30:19;;;;;;;2.63;2.13;;;;;;;15.90;nan;100574.84;4967995;28;20034;-67
2022/09/11 03:32:44;;;;;;;3.40;2.38;;;;;;;15.87;nan;100570.72;4970832;28;20041;-66
2022/09/11 03:35:10;;;;;;;3.60;2.35;;;;;;;15.86;nan;100579.72;4969255;28;20757;-66
2022/09/11 03:37:35;;;;;;;3.35;2.63;;;;;;;15.86;nan;100586.88;4970857;28;20027;-66
2022/09/11 03:40:02;;;;;;;3.55;2.85;;;;;;;15.84;nan;100583.56;4969997;28;20109;-66
2022/09/11 03:42:27;;;;;;;2.75;2.30;;;;;;;15.81;nan;100583.94;4965058;28;20031;-66
2022/09/11 03:44:53;;;;;;;2.90;2.15;;;;;;;15.82;nan;100589.09;4971095;28;20043;-67
2022/09/11 03:47:21;;;;;;;3.78;2.80;;;;;;;15.85;nan;100598.53;4969565;28;20491;-66
2022/09/11 03:49:47;;;;;;;3.17;2.45;;;;;;;15.85;nan;100598.53;4971075;28;20035;-66
2022/09/11 03:52:12;;;;;;;3.03;2.45;;;;;;;15.83;nan;100601.41;4967707;28;20033;-66
2022/09/11 03:54:38;;;;;;;2.42;2.00;;;;;;;15.85;nan;100609.22;4970985;28;20031;-66
2022/09/11 03:57:04;;;;;;;2.60;2.28;;;;;;;15.85;nan;100603.88;4965557;28;20087;-66
2022/09/11 03:59:30;;;;;;;3.42;2.50;;;;;;;15.84;nan;100610.25;4970636;28;20038;-66
2022/09/11 04:01:55;;;;;;;2.90;2.42;;;;;;;15.81;nan;100605.28;4964134;28;20118;-66
2022/09/11 04:04:20;;;;;;;2.60;2.22;;;;;;;15.80;nan;100614.28;4970683;28;20416;-66
2022/09/11 04:06:46;;;;;;;2.88;2.20;;;;;;;15.77;nan;100615.47;4976102;28;20030;-66
2022/09/11 04:09:11;;;;;;;3.27;2.57;;;;;;;15.90;nan;100618.34;4969710;28;20408;-66
2022/09/11 04:11:38;;;;;;;3.10;2.80;;;;;;;16.01;nan;100617.03;4969956;28;20419;-66
2022/09/11 04:14:04;;;;;;;4.00;2.45;;;;;;;15.97;nan;100623.75;4970398;28;20134;-66
2022/09/11 04:16:31;;;;;;;3.60;3.17;;;;;;;16.04;nan;100618.50;4970226;28;20455;-66
2022/09/11 04:18:58;;;;;;;3.08;2.70;;;;;;;16.07;nan;100623.47;4969420;28;21014;-66
2022/09/11 04:21:24;;;;;;;3.25;2.83;;;;;;;16.10;nan;100621.25;4969853;28;21008;-66
2022/09/11 04:23:54;;;;;;;3.23;2.80;;;;;;;16.13;nan;100630.72;4971386;28;20439;-66
2022/09/11 04:26:22;;;;;;;3.03;2.63;;;;;;;16.16;nan;100633.03;4967657;28;20559;-66
2022/09/11 04:28:48;;;;;;;3.40;2.70;;;;;;;16.20;nan;100636.97;4969262;28;20405;-66
2022/09/11 04:31:14;;;;;;;;;;;;;;;16.07;nan;100626.97;4970699;28;20042;-66
2022/09/11 04:33:40;;;;;;;;;;;;;;;15.99;nan;100631.56;4971147;28;20153;-66
2022/09/11 04:36:06;;;;;;;;;;;;;;;15.89;nan;100630.00;4970771;28;20021;-66
2022/09/11 04:38:32;;;;;;;;;;;;;;;15.82;nan;100629.06;4977602;28;19944;-66
2022/09/11 04:41:01;;;;;;;;;;;;;;;15.77;nan;100641.31;4970815;28;19914;-66
2022/09/11 04:43:27;;;;;;;;;;;;;;;15.69;nan;100634.22;4971105;28;19925;-66
2022/09/11 04:45:58;;;;;;;;;;;;;;;15.66;nan;100637.22;4970647;28;19913;-66
2022/09/11 04:48:23;;;;;;;;;;;;;;;15.60;nan;100641.44;4974367;28;19924;-66
2022/09/11 04:50:49;;;;;;;;;;;;;;;15.57;nan;100643.66;4970780;28;20349;-66
2022/09/11 04:53:14;;;;;;;;;;;;;;;15.54;nan;100639.53;4970714;28;19922;-66
2022/09/11 04:55:39;;;;;;;;;;;;;;;15.54;nan;100644.00;4970922;28;19957;-66
2022/09/11 04:58:04;;;;;;;;;;;;;;;15.53;nan;100637.84;4973393;28;19917;-67
2022/09/11 05:00:30;;;;;;;;;;;;;;;15.51;nan;100640.69;4966988;28;20379;-66
2022/09/11 05:02:55;;;;;;;;;;;;;;;15.49;nan;100648.06;4969411;28;20013;-66
2022/09/11 05:05:20;;;;;;;;;;;;;;;15.49;nan;100649.88;4969886;28;20001;-66
2022/09/11 05:07:49;;;;;;;4.60;3.40;;;;;;;15.50;nan;100654.22;4968711;28;20359;-66
2022/09/11 05:10:15;;;;;;;3.45;3.15;;;;;;;15.52;nan;100662.84;4969555;28;20224;-66
2022/09/11 05:12:40;;;;;;;3.33;2.95;;;;;;;15.51;nan;100662.00;4969520;28;20085;-67
2022/09/11 05:15:06;;;;;;;4.07;3.30;;;;;;;15.47;nan;100662.56;4969418;28;20105;-66
2022/09/11 05:17:31;;;;;;;4.40;3.05;;;;;;;15.44;nan;100665.56;4969634;28;20057;-66
2022/09/11 05:19:57;;;;;;;3.38;2.90;;;;;;;15.39;nan;100667.97;4967278;28;20041;-67
2022/09/11 05:22:23;;;;;;;3.42;3.00;;;;;;;15.38;nan;100671.66;4966432;28;20182;-66
2022/09/11 05:24:48;;;;;;;;;;;;;;;15.37;nan;100669.97;4963340;28;20069;-66
2022/09/11 05:27:14;;;;;;;3.50;2.23;;;;;;;15.39;nan;100684.78;4970073;28;19965;-66
2022/09/11 05:29:40;;;;;;;2.88;2.47;;;;;;;15.43;nan;100682.59;4967821;28;20059;-66
2022/09/11 05:32:06;;;;;;;3.67;2.80;;;;;;;15.46;nan;100691.03;4969072;28;20085;-69
2022/09/11 05:34:31;;;;;;;5.47;3.58;;;;;;;15.49;nan;100688.03;4964748;28;20038;-67
2022/09/11 05:36:56;;;;;;;3.63;2.80;;;;;;;15.55;nan;100694.47;4969292;28;20057;-66
2022/09/11 05:39:22;;;;;;;3.10;2.80;;;;;;;15.60;nan;100701.94;4967374;28;20298;-66
2022/09/11 05:41:52;;;;;;;2.60;2.25;;;;;;;15.65;nan;100705.69;4969226;28;20070;-66
2022/09/11 05:44:18;;;;;;;4.70;2.80;;;;;;;15.69;nan;100708.84;4968472;28;20189;-66
2022/09/11 05:46:44;;;;;;;3.15;2.85;;;;;;;15.74;nan;100708.34;4969499;28;20056;-66
2022/09/11 05:49:09;;;;;;;3.33;2.70;;;;;;;15.82;nan;100710.91;4968295;28;20392;-66
2022/09/11 05:51:36;;;;;;;2.72;2.45;;;;;;;15.85;nan;100716.72;4968429;28;20555;-66
2022/09/11 05:54:02;;;;;;;4.20;3.80;;;;;;;15.87;nan;100717.38;4968788;28;20054;-68
2022/09/11 05:56:28;;;;;;;3.50;3.20;;;;;;;15.95;nan;100723.63;4964738;28;20045;-67
2022/09/11 05:58:53;;;;;;;5.00;4.20;;;;;;;16.00;nan;100734.59;4963875;28;20455;-66
2022/09/11 06:01:27;;;;;;;4.07;3.67;;;;;;;16.03;nan;100728.88;4967390;28;20045;-66
2022/09/11 06:03:52;;;;;;;4.07;3.60;;;;;;;16.05;nan;100726.88;4968681;28;20097;-67
2022/09/11 06:06:20;;;;;;;2.95;2.60;;;;;;;16.04;nan;100723.38;4964150;28;20034;-66
2022/09/11 06:08:47;;;;;;;3.08;2.75;;;;;;;16.00;nan;100721.25;4968894;28;20035;-66
2022/09/11 06:11:14;;;;;;;3.63;3.10;;;;;;;15.96;nan;100725.28;4969028;28;20125;-66
2022/09/11 06:13:42;;;;;;;3.67;2.92;;;;;;;15.90;nan;100722.34;4968900;28;20023;-66
2022/09/11 06:16:12;;;;;;;4.07;3.67;;;;;;;15.83;nan;100726.75;4968424;28;20155;-67
2022/09/11 06:18:38;;;;;;;;;;;;;;;15.78;nan;100728.28;4968041;28;20073;-66
2022/09/11 06:21:06;;;;;;;4.45;3.10;;;;;;;15.77;nan;100743.44;4967110;28;20442;-67
2022/09/11 06:23:34;;;;;;;3.78;2.90;;;;;;;15.80;nan;100736.94;4968956;28;20031;-66
2022/09/11 06:26:04;;;;;;;4.30;3.90;;;;;;;15.98;nan;100748.09;4970788;28;20511;-67
2022/09/11 06:28:29;;;;;;;3.88;3.08;;;;;;;16.02;nan;100746.72;4972778;28;20046;-66
2022/09/11 06:30:55;;;;;;;2.63;2.35;;;;;;;16.06;nan;100745.34;4973932;28;20038;-66
2022/09/11 06:33:20;;;;;;;3.95;2.70;;;;;;;16.06;nan;100748.00;4972816;28;20039;-67
2022/09/11 06:36:02;;;;;;;2.83;2.53;;;;;;;16.05;nan;100753.53;4973053;28;20054;-66
2022/09/11 06:38:28;;;;;;;3.45;2.90;;;;;;;16.06;nan;100753.34;4958584;28;20098;-67
2022/09/11 06:40:54;;;;;;;3.42;3.00;;;;;;;16.09;nan;100760.19;4974987;28;20059;-66
2022/09/11 06:43:20;;;;;;;3.35;2.78;;;;;;;16.10;nan;100754.63;4972247;28;20339;-67
2022/09/11 06:45:48;;;;;;;4.20;3.80;;;;;;;16.25;nan;100753.81;4969971;28;20476;-66
2022/09/11 06:48:15;;;;;;;4.30;3.90;;;;;;;16.36;nan;100750.69;4962525;28;20412;-66
2022/09/11 06:50:40;;;;;;;;;;;;;;;16.29;nan;100744.44;4972834;28;20027;-67
2022/09/11 06:53:07;;;;;;;5.37;3.73;;;;;;;16.29;nan;100745.25;4981310;28;19918;-67
2022/09/11 06:55:33;;;;;;;4.57;3.92;;;;;;;16.34;nan;100742.06;4972631;28;20132;-67
2022/09/11 06:57:59;;;;;;;4.53;3.85;;;;;;;16.41;nan;100745.63;4972308;28;20031;-67
2022/09/11 07:00:25;;;;;;;2.92;2.63;;;;;;;16.68;nan;100745.97;4968576;28;20046;-67
2022/09/11 07:02:51;;;;;;;3.05;2.60;;;;;;;17.26;nan;100743.38;4973639;28;20122;-67
2022/09/11 07:05:17;;;;;;;2.85;2.58;;;;;;;17.85;nan;100753.78;4970540;28;20085;-67
2022/09/11 07:07:42;;;;;;;3.58;2.80;;;;;;;18.41;nan;100750.25;4978841;28;20632;-67
2022/09/11 07:10:09;;;;;;;3.13;2.53;;;;;;;18.88;nan;100754.84;4971561;28;20199;-68
2022/09/11 07:12:34;;;;;;;3.40;2.83;;;;;;;19.28;nan;100752.28;4971742;28;20031;-67
2022/09/11 07:15:00;;;;;;;4.03;3.30;;;;;;;19.70;nan;100747.56;4972184;28;20550;-67
2022/09/11 07:17:25;;;;;;;3.17;2.88;;;;;;;20.06;nan;100759.72;4972360;28;20405;-67
2022/09/11 07:19:51;;;;;;;3.78;3.05;;;;;;;20.34;nan;100764.03;4973300;28;20042;-67
2022/09/11 07:22:16;;;;;;;3.40;2.85;;;;;;;20.42;nan;100762.97;4971035;28;20026;-67
2022/09/11 07:24:41;;;;;;;4.78;3.05;;;;;;;20.33;nan;100765.03;4972379;28;20038;-67
2022/09/11 07:27:07;;;;;;;3.67;3.07;;;;;;;20.06;nan;100762.41;4969808;28;20430;-67
2022/09/11 07:29:32;;;;;;;4.35;3.70;;;;;;;19.80;nan;100782.03;4970846;28;20279;-66
2022/09/11 07:31:58;;;;;;;5.10;4.43;;;;;;;19.48;nan;100771.06;4971277;28;20062;-66
2022/09/11 07:34:24;;;;;;;4.05;3.65;;;;;;;19.22;nan;100771.84;4971590;28;20039;-66
2022/09/11 07:36:50;;;;;;;4.43;3.67;;;;;;;19.16;nan;100778.00;4971706;28;20030;-66
2022/09/11 07:39:16;;;;;;;3.72;3.40;;;;;;;19.19;nan;100777.59;4971585;28;20042;-66
2022/09/11 07:41:41;;;;;;;4.07;3.50;;;;;;;19.18;nan;100775.94;4971074;28;20396;-66
2022/09/11 07:44:07;;;;;;;5.00;4.35;;;;;;;19.28;nan;100775.56;4969391;28;20047;-67
2022/09/11 07:46:32;;;;;;;4.28;3.20;;;;;;;19.65;nan;100778.72;4971705;28;20023;-67
2022/09/11 07:48:58;;;;;;;4.65;3.72;;;;;;;20.04;nan;100782.44;4966044;28;20039;-66
2022/09/11 07:51:24;;;;;;;5.07;3.40;;;;;;;20.53;nan;100794.56;4971247;28;20045;-66
2022/09/11 07:53:51;;;;;;;3.38;2.95;;;;;;;21.16;nan;100792.03;4969287;28;20031;-66
2022/09/11 07:56:19;;;;;;;5.05;3.38;;;;;;;21.61;nan;100791.19;4971004;28;20023;-67
2022/09/11 07:58:45;;;;;;;4.05;3.00;;;;;;;21.90;nan;100792.41;4970589;28;20039;-66
2022/09/11 08:01:14;;;;;;;4.15;3.70;;;;;;;22.04;nan;100796.63;4978931;28;20324;-66
2022/09/11 08:03:41;;;;;;;4.72;4.00;;;;;;;21.89;nan;100795.31;4970202;28;20125;-66
2022/09/11 08:06:13;;;;;;;8.07;5.80;;;;;;;21.55;nan;100790.19;4969598;28;20089;-67
2022/09/11 08:08:40;;;;;;;6.57;5.20;;;;;;;21.33;nan;100784.31;4969793;28;20031;-66
2022/09/11 08:11:08;;;;;;;4.10;3.60;;;;;;;21.33;nan;100783.47;4970810;28;20324;-66
2022/09/11 08:13:34;;;;;;;6.07;5.35;;;;;;;21.12;nan;100781.97;4971545;28;20074;-66
2022/09/11 08:15:59;;;;;;;10.10;7.03;;;;;;;20.70;nan;100789.59;4969601;28;20472;-66
2022/09/11 08:18:25;;;;;;;7.70;5.85;;;;;;;20.44;nan;100783.22;4974570;28;20038;-66
2022/09/11 08:20:50;;;;;;;5.05;4.40;;;;;;;21.05;nan;100789.25;4970609;28;20033;-66
2022/09/11 08:23:15;;;;;;;4.68;3.47;;;;;;;21.84;nan;100788.72;4970158;28;20043;-66
2022/09/11 08:25:42;;;;;;;6.20;4.90;;;;;;;22.45;nan;100789.00;4973743;28;20050;-66
2022/09/11 08:28:08;;;;;;;5.18;3.65;;;;;;;23.10;nan;100791.16;4970226;28;20366;-67
2022/09/11 08:30:37;;;;;;;3.92;3.47;;;;;;;23.67;nan;100788.06;4970770;28;20511;-66
2022/09/11 08:33:03;;;;;;;4.45;3.63;;;;;;;24.19;nan;100792.81;4970504;28;20039;-66
2022/09/11 08:35:29;;;;;;;5.95;4.55;;;;;;;24.32;nan;100787.16;4971557;28;20582;-66
2022/09/11 08:37:54;;;;;;;4.87;4.00;;;;;;;24.37;nan;100804.31;4970213;28;20129;-66
2022/09/11 08:40:20;;;;;;;4.25;3.70;;;;;;;24.34;nan;100802.09;4970858;28;20361;-67
2022/09/11 08:42:46;;;;;;;4.35;3.03;;;;;;;24.72;nan;100798.06;4970143;28;20042;-66
2022/09/11 08:45:16;;;;;;;3.25;2.50;;;;;;;25.25;nan;100800.72;4976955;28;20086;-66
2022/09/11 08:47:47;;;;;;;3.50;2.80;;;;;;;26.02;nan;100803.69;4969948;28;20035;-67
2022/09/11 08:50:20;;;;;;;;;;;;;;;26.49;nan;100799.75;4970228;28;20484;-67
2022/09/11 08:52:47;;;;;;;3.95;3.17;;;;;;;27.40;nan;100804.63;4968579;28;19989;-66
2022/09/11 08:55:16;;;;;;;4.20;3.05;;;;;;;27.74;nan;100807.09;4971242;28;20038;-67
2022/09/11 08:57:56;;;;;;;4.80;3.22;;;;;;;27.77;nan;100811.19;4970176;28;20567;-67
2022/09/11 09:00:30;;;;;;;3.40;2.40;;;;;;;28.03;nan;100813.06;4966411;28;20046;-67
2022/09/11 09:03:11;;;;;;;4.68;3.70;;;;;;;27.30;nan;100805.34;4968345;28;20046;-67
2022/09/11 09:05:43;;;;;;;6.43;5.70;;;;;;;26.21;nan;100809.66;4968374;28;20129;-66
2022/09/11 09:08:36;;;;;;;5.00;4.15;;;;;;;24.99;nan;100811.84;4969496;28;20058;-67
2022/09/11 09:11:19;;;;;;;6.70;5.00;;;;;;;24.28;nan;100797.63;4970677;28;20117;-66
2022/09/11 09:13:50;;;;;;;6.75;4.82;;;;;;;23.83;nan;100802.78;4970223;28;20038;-66
2022/09/11 09:16:44;;;;;;;6.80;5.18;;;;;;;22.98;nan;100807.31;4968284;28;20045;-66
2022/09/11 09:19:15;;;;;;;7.63;6.18;;;;;;;22.32;nan;100810.72;4970086;28;20039;-66
2022/09/11 09:21:48;;;;;;;6.93;6.15;;;;;;;21.81;nan;100808.03;4969147;28;20037;-66
2022/09/11 09:24:18;;;;;;;7.50;6.20;;;;;;;21.41;nan;100813.66;4961462;28;20055;-66
2022/09/11 09:26:49;;;;;;;7.20;5.55;;;;;;;21.19;nan;100812.34;4969203;28;20507;-66
2022/09/11 09:29:20;;;;;;;4.85;4.20;;;;;;;21.02;nan;100814.66;4961723;28;20447;-66
2022/09/11 09:31:49;;;;;;;5.38;4.72;;;;;;;20.87;nan;100814.94;4963347;28;20387;-66
2022/09/11 09:34:19;;;;;;;5.65;4.47;;;;;;;20.78;nan;100818.91;4969392;28;20039;-66
2022/09/11 09:37:09;;;;;;;4.60;4.03;;;;;;;20.74;nan;100815.00;4967906;28;20027;-65
2022/09/11 09:39:36;;;;;;;5.72;5.00;;;;;;;20.91;nan;100818.84;4964381;28;20566;-66
2022/09/11 09:42:39;;;;;;;4.88;4.07;;;;;;;21.39;nan;100815.75;4962730;28;20396;-66
2022/09/11 09:45:23;;;;;;;5.10;4.60;;;;;;;21.97;nan;100809.31;4949045;28;20132;-66
2022/09/11 09:47:49;;;;;;;6.82;5.57;;;;;;;24.26;nan;100809.72;4966133;28;20089;-66
2022/09/11 09:50:27;;;;;;;5.07;4.40;;;;;;;25.80;nan;100809.00;4969039;28;20034;-66
2022/09/11 09:53:01;;;;;;;6.75;5.15;;;;;;;26.56;nan;100816.69;4966708;28;20541;-66
2022/09/11 09:55:26;;;;;;;6.78;4.88;;;;;;;26.08;nan;100826.28;4969361;28;20026;-66
2022/09/11 09:57:52;;;;;;;;;;;;;;;25.09;nan;100832.06;4966891;28;20403;-66
2022/09/11 10:00:18;;;;;;;7.20;4.97;;;;;;;23.63;nan;100827.38;4966621;28;19920;-67
2022/09/11 10:02:56;;;;;;;6.72;4.97;;;;;;;22.14;nan;100825.75;4968682;28;20282;-67
2022/09/11 10:05:40;;;;;;;8.10;5.47;;;;;;;21.19;nan;100817.72;4969065;28;20043;-67
2022/09/11 10:08:39;;;;;;;7.18;5.47;;;;;;;20.56;nan;100819.16;4968738;28;20039;-67
2022/09/11 10:11:07;;;;;;;7.32;5.60;;;;;;;20.19;nan;100817.97;4957177;28;20093;-66
2022/09/11 10:13:51;;;;;;;9.63;7.15;;;;;;;19.67;nan;100819.59;4965176;28;20400;-66
2022/09/11 10:16:22;;;;;;;6.60;5.35;;;;;;;19.49;nan;100810.25;4961286;28;20035;-67
2022/09/11 10:18:50;;;;;;;;;;;;;;;19.47;nan;100819.53;4969503;28;20038;-66
2022/09/11 10:21:36;;;;;;;6.53;5.30;;;;;;;19.55;nan;100822.03;4969040;28;19914;-67
2022/09/11 10:24:08;;;;;;;9.95;6.30;;;;;;;19.61;nan;100817.69;4967519;28;20115;-67
2022/09/11 10:26:38;;;;;;;7.90;6.07;;;;;;;19.73;nan;100818.78;4966844;28;20083;-66
2022/09/11 10:29:28;;;;;;;7.25;6.22;;;;;;;19.84;nan;100814.66;4967346;28;20039;-67
2022/09/11 10:32:01;;;;;;;6.38;5.25;;;;;;;19.99;nan;100820.66;4968950;28;20046;-66
2022/09/11 10:34:33;;;;;;;7.20;4.90;;;;;;;20.08;nan;100814.03;4966719;28;20688;-67
2022/09/11 10:37:02;;;;;;;8.02;5.75;;;;;;;20.14;nan;100815.91;4969130;28;20459;-66
2022/09/11 10:39:31;;;;;;;6.93;5.97;;;;;;;20.24;nan;100811.97;4962601;28;20054;-66
2022/09/11 10:42:00;;;;;;;5.75;4.90;;;;;;;20.34;nan;100807.00;4968312;28;20039;-66
2022/09/11 10:44:27;;;;;;;6.38;5.00;;;;;;;20.42;nan;100804.06;4973902;28;20055;-67
2022/09/11 10:47:05;;;;;;;6.47;5.32;;;;;;;20.52;nan;100812.53;4968681;28;20483;-66
2022/09/11 10:49:32;;;;;;;4.68;3.90;;;;;;;20.65;nan;100814.41;4972307;28;20035;-67
2022/09/11 10:52:17;;;;;;;7.68;6.00;;;;;;;20.63;nan;100815.66;4968447;28;20412;-66
2022/09/11 10:55:04;;;;;;;5.45;4.80;;;;;;;20.49;nan;100820.19;4959516;28;20532;-66
2022/09/11 10:57:44;;;;;;;6.40;5.18;;;;;;;20.41;nan;100825.78;4969257;28;20034;-66
2022/09/11 11:00:22;;;;;;;6.60;5.80;;;;;;;20.28;nan;100815.88;4965031;28;20035;-67
2022/09/11 11:03:04;;;;;;;7.28;6.35;;;;;;;19.92;nan;100811.78;4970684;28;20133;-66
2022/09/11 11:05:52;;;;;;;6.05;5.25;;;;;;;19.66;nan;100817.91;4963881;28;20038;-66
2022/09/11 11:08:49;;;;;;;8.73;7.20;;;;;;;19.42;nan;100825.50;4927310;28;20266;-66
2022/09/11 11:11:33;;;;;;;11.05;7.70;;;;;;;19.41;nan;100825.72;4972169;28;20162;-66
2022/09/11 11:14:39;;;;;;;8.75;7.35;;;;;;;19.60;nan;100824.94;4972712;28;20023;-66
2022/09/11 11:17:07;;;;;;;8.70;6.97;;;;;;;19.84;nan;100822.72;4971344;28;20042;-66
2022/09/11 11:19:45;;;;;;;9.30;7.72;;;;;;;20.04;nan;100815.47;4970773;28;20035;-66
2022/09/11 11:22:42;;;;;;;9.77;8.23;;;;;;;20.23;nan;100815.69;4969560;28;20555;-67
2022/09/11 11:25:20;;;;;;;14.48;11.02;;;;;;;20.30;nan;100811.13;4970607;28;20065;-66
2022/09/11 11:27:54;;;;;;;12.30;9.50;;;;;;;20.40;nan;100813.38;4971934;28;20027;-66
2022/09/11 11:30:28;;;;;;;10.02;7.93;;;;;;;20.55;nan;100812.16;4963721;28;20141;-66
2022/09/11 11:33:17;;;;;;;9.27;7.47;;;;;;;21.68;nan;100808.09;4971478;28;20034;-66
2022/09/11 11:35:48;;;;;;;9.32;7.55;;;;;;;24.43;nan;100807.97;4967885;28;20077;-66
2022/09/11 11:38:19;;;;;;;8.23;7.03;;;;;;;26.39;nan;100810.47;4969565;28;20038;-67
2022/09/11 11:41:00;;;;;;;8.55;6.57;;;;;;;27.81;nan;100821.28;4967677;28;20403;-67
2022/09/11 11:43:30;;;;;;;8.48;7.13;;;;;;;26.67;nan;100818.47;4969594;28;20139;-67
2022/09/11 11:46:03;;;;;;;10.77;8.18;;;;;;;25.08;nan;100820.41;4968626;28;20121;-67
2022/09/11 11:49:00;;;;;;;7.35;5.97;;;;;;;24.30;nan;100809.00;4970950;28;20031;-67
2022/09/11 11:51:29;;;;;;;8.52;6.57;;;;;;;23.73;nan;100816.81;4963242;28;20088;-66
2022/09/11 11:54:19;;;;;;;8.35;6.88;;;;;;;22.95;nan;100818.50;4970677;28;20416;-66
2022/09/11 11:57:01;;;;;;;8.30;6.72;;;;;;;22.50;nan;100810.75;4969431;28;20045;-66
2022/09/11 11:59:39;;;;;;;6.57;5.55;;;;;;;22.30;nan;100818.19;4969510;28;20027;-66
2022/09/11 12:02:17;;;;;;;7.30;5.55;;;;;;;22.25;nan;100810.78;4969849;28;20043;-66